sensor_id;sensor_type;location;lat;lon;timestamp;temperature;humidity
2391;DHT22;22957;50.824;4.360;2022-10-17T00:01:46;17.90;99.90
2391;DHT22;22957;50.824;4.360;2022-10-17T00:04:12;17.70;99.90
2391;DHT22;22957;50.824;4.360;2022-10-17T00:06:38;18.20;99.90
2391;DHT22;22957;50.824;4.360;2022-10-17T00:09:04;17.80;99.90
2391;DHT22;22957;50.824;4.360;2022-10-17T00:11:30;17.70;99.90
2391;DHT22;22957;50.824;4.360;2022-10-17T00:13:55;17.80;99.90
2391;DHT22;22957;50.824;4.360;2022-10-17T00:16:26;18.00;99.90
2391;DHT22;22957;50.824;4.360;2022-10-17T00:18:53;17.80;99.90
2391;DHT22;22957;50.824;4.360;2022-10-17T00:21:19;18.00;99.90
2391;DHT22;22957;50.824;4.360;2022-10-17T00:23:46;18.00;99.90
2391;DHT22;22957;50.824;4.360;2022-10-17T00:26:12;18.00;99.90
2391;DHT22;22957;50.824;4.360;2022-10-17T00:28:38;18.00;99.90
2391;DHT22;22957;50.824;4.360;2022-10-17T00:31:05;18.00;99.90
2391;DHT22;22957;50.824;4.360;2022-10-17T00:33:32;18.00;99.90
2391;DHT22;22957;50.824;4.360;2022-10-17T00:36:10;17.70;99.90
2391;DHT22;22957;50.824;4.360;2022-10-17T00:38:38;17.90;99.90
2391;DHT22;22957;50.824;4.360;2022-10-17T00:41:05;18.10;99.90
2391;DHT22;22957;50.824;4.360;2022-10-17T00:43:58;18.50;99.90
2391;DHT22;22957;50.824;4.360;2022-10-17T00:46:32;18.10;99.90
2391;DHT22;22957;50.824;4.360;2022-10-17T00:49:07;18.10;99.90
2391;DHT22;22957;50.824;4.360;2022-10-17T00:54:10;18.20;99.90
2391;DHT22;22957;50.824;4.360;2022-10-17T00:56:37;18.20;99.90
2391;DHT22;22957;50.824;4.360;2022-10-17T00:59:06;18.40;99.90
2391;DHT22;22957;50.824;4.360;2022-10-17T01:01:33;18.30;99.90
2391;DHT22;22957;50.824;4.360;2022-10-17T01:04:00;18.60;99.90
2391;DHT22;22957;50.824;4.360;2022-10-17T01:06:25;18.30;99.90
2391;DHT22;22957;50.824;4.360;2022-10-17T01:08:51;18.40;99.90
2391;DHT22;22957;50.824;4.360;2022-10-17T01:11:36;18.10;99.90
2391;DHT22;22957;50.824;4.360;2022-10-17T01:14:16;18.10;99.90
2391;DHT22;22957;50.824;4.360;2022-10-17T01:22:31;18.60;99.90
2391;DHT22;22957;50.824;4.360;2022-10-17T01:25:14;18.50;99.90
2391;DHT22;22957;50.824;4.360;2022-10-17T01:28:08;18.40;99.90
2391;DHT22;22957;50.824;4.360;2022-10-17T01:36:42;18.30;99.90
2391;DHT22;22957;50.824;4.360;2022-10-17T01:41:51;18.40;99.90
2391;DHT22;22957;50.824;4.360;2022-10-17T01:44:25;18.60;99.90
2391;DHT22;22957;50.824;4.360;2022-10-17T01:47:19;18.40;99.90
2391;DHT22;22957;50.824;4.360;2022-10-17T01:49:48;18.40;99.90
2391;DHT22;22957;50.824;4.360;2022-10-17T01:52:21;18.30;99.90
2391;DHT22;22957;50.824;4.360;2022-10-17T01:54:54;18.40;99.90
2391;DHT22;22957;50.824;4.360;2022-10-17T01:57:33;18.40;99.90
2391;DHT22;22957;50.824;4.360;2022-10-17T01:59:59;18.60;99.90
2391;DHT22;22957;50.824;4.360;2022-10-17T02:02:26;18.60;99.90
2391;DHT22;22957;50.824;4.360;2022-10-17T02:04:54;18.70;99.90
2391;DHT22;22957;50.824;4.360;2022-10-17T02:07:21;18.70;99.90
2391;DHT22;22957;50.824;4.360;2022-10-17T02:09:46;18.60;99.90
2391;DHT22;22957;50.824;4.360;2022-10-17T02:12:41;18.50;99.90
2391;DHT22;22957;50.824;4.360;2022-10-17T02:21:04;18.50;99.90
2391;DHT22;22957;50.824;4.360;2022-10-17T02:26:10;18.50;99.90
2391;DHT22;22957;50.824;4.360;2022-10-17T02:34:20;18.80;99.90
2391;DHT22;22957;50.824;4.360;2022-10-17T02:36:51;18.90;99.90
2391;DHT22;22957;50.824;4.360;2022-10-17T02:39:21;18.80;99.90
2391;DHT22;22957;50.824;4.360;2022-10-17T02:41:48;18.80;99.90
2391;DHT22;22957;50.824;4.360;2022-10-17T02:44:15;18.70;99.90
2391;DHT22;22957;50.824;4.360;2022-10-17T02:46:44;18.80;99.90
2391;DHT22;22957;50.824;4.360;2022-10-17T02:49:17;18.50;99.90
2391;DHT22;22957;50.824;4.360;2022-10-17T02:54:34;18.70;99.90
2391;DHT22;22957;50.824;4.360;2022-10-17T02:57:16;18.60;99.90
2391;DHT22;22957;50.824;4.360;2022-10-17T02:59:44;18.80;99.90
2391;DHT22;22957;50.824;4.360;2022-10-17T03:02:10;18.90;99.90
2391;DHT22;22957;50.824;4.360;2022-10-17T03:04:36;19.00;99.90
2391;DHT22;22957;50.824;4.360;2022-10-17T03:07:02;18.80;99.90
2391;DHT22;22957;50.824;4.360;2022-10-17T03:09:28;19.00;99.90
2391;DHT22;22957;50.824;4.360;2022-10-17T03:11:53;18.90;99.90
2391;DHT22;22957;50.824;4.360;2022-10-17T03:14:19;18.90;99.90
2391;DHT22;22957;50.824;4.360;2022-10-17T03:16:45;18.50;99.90
2391;DHT22;22957;50.824;4.360;2022-10-17T03:19:10;18.70;99.90
2391;DHT22;22957;50.824;4.360;2022-10-17T03:21:36;18.80;99.90
2391;DHT22;22957;50.824;4.360;2022-10-17T03:24:02;18.60;99.90
2391;DHT22;22957;50.824;4.360;2022-10-17T03:26:28;18.90;99.90
2391;DHT22;22957;50.824;4.360;2022-10-17T03:28:54;18.60;99.90
2391;DHT22;22957;50.824;4.360;2022-10-17T03:31:21;18.90;99.90
2391;DHT22;22957;50.824;4.360;2022-10-17T03:33:47;19.10;99.90
2391;DHT22;22957;50.824;4.360;2022-10-17T03:36:15;18.90;99.90
2391;DHT22;22957;50.824;4.360;2022-10-17T03:38:41;18.90;99.90
2391;DHT22;22957;50.824;4.360;2022-10-17T03:41:07;19.00;99.90
2391;DHT22;22957;50.824;4.360;2022-10-17T03:43:33;19.10;99.90
2391;DHT22;22957;50.824;4.360;2022-10-17T03:45:59;19.00;99.90
2391;DHT22;22957;50.824;4.360;2022-10-17T03:48:26;19.20;99.90
2391;DHT22;22957;50.824;4.360;2022-10-17T03:51:02;19.00;99.90
2391;DHT22;22957;50.824;4.360;2022-10-17T03:53:28;18.90;99.90
2391;DHT22;22957;50.824;4.360;2022-10-17T03:55:54;19.10;99.90
2391;DHT22;22957;50.824;4.360;2022-10-17T03:58:19;18.90;99.90
2391;DHT22;22957;50.824;4.360;2022-10-17T04:00:45;18.80;99.90
2391;DHT22;22957;50.824;4.360;2022-10-17T04:03:11;18.90;99.90
2391;DHT22;22957;50.824;4.360;2022-10-17T04:05:37;18.80;99.90
2391;DHT22;22957;50.824;4.360;2022-10-17T04:08:03;18.90;99.90
2391;DHT22;22957;50.824;4.360;2022-10-17T04:10:29;18.90;99.90
2391;DHT22;22957;50.824;4.360;2022-10-17T04:12:55;18.90;99.90
2391;DHT22;22957;50.824;4.360;2022-10-17T04:15:21;19.10;99.90
2391;DHT22;22957;50.824;4.360;2022-10-17T04:17:47;19.00;99.90
2391;DHT22;22957;50.824;4.360;2022-10-17T04:20:13;18.90;99.90
2391;DHT22;22957;50.824;4.360;2022-10-17T04:22:39;18.80;99.90
2391;DHT22;22957;50.824;4.360;2022-10-17T04:25:05;18.80;99.90
2391;DHT22;22957;50.824;4.360;2022-10-17T04:27:31;18.70;99.90
2391;DHT22;22957;50.824;4.360;2022-10-17T04:29:57;19.00;99.90
2391;DHT22;22957;50.824;4.360;2022-10-17T04:32:23;19.00;99.90
2391;DHT22;22957;50.824;4.360;2022-10-17T04:34:50;18.90;99.90
2391;DHT22;22957;50.824;4.360;2022-10-17T04:37:17;18.90;99.90
2391;DHT22;22957;50.824;4.360;2022-10-17T04:39:43;18.90;99.90
2391;DHT22;22957;50.824;4.360;2022-10-17T04:42:08;18.80;99.90
2391;DHT22;22957;50.824;4.360;2022-10-17T04:44:35;18.90;99.90
2391;DHT22;22957;50.824;4.360;2022-10-17T04:47:02;18.80;99.90
2391;DHT22;22957;50.824;4.360;2022-10-17T04:49:29;18.90;99.90
2391;DHT22;22957;50.824;4.360;2022-10-17T04:51:56;18.80;99.90
2391;DHT22;22957;50.824;4.360;2022-10-17T04:54:32;18.80;99.90
2391;DHT22;22957;50.824;4.360;2022-10-17T04:57:13;18.70;99.90
2391;DHT22;22957;50.824;4.360;2022-10-17T04:59:48;18.50;99.90
2391;DHT22;22957;50.824;4.360;2022-10-17T05:02:19;18.50;99.90
2391;DHT22;22957;50.824;4.360;2022-10-17T05:04:46;18.60;99.90
2391;DHT22;22957;50.824;4.360;2022-10-17T05:07:21;18.50;99.90
2391;DHT22;22957;50.824;4.360;2022-10-17T05:09:52;18.60;99.90
2391;DHT22;22957;50.824;4.360;2022-10-17T05:12:19;18.70;99.90
2391;DHT22;22957;50.824;4.360;2022-10-17T05:15:11;18.40;99.90
2391;DHT22;22957;50.824;4.360;2022-10-17T05:17:54;18.30;99.90
2391;DHT22;22957;50.824;4.360;2022-10-17T05:20:24;18.50;99.90
2391;DHT22;22957;50.824;4.360;2022-10-17T05:22:53;18.70;99.90
2391;DHT22;22957;50.824;4.360;2022-10-17T05:25:22;18.80;99.90
2391;DHT22;22957;50.824;4.360;2022-10-17T05:27:50;18.90;99.90
2391;DHT22;22957;50.824;4.360;2022-10-17T05:30:23;18.70;99.90
2391;DHT22;22957;50.824;4.360;2022-10-17T05:32:52;19.20;99.90
2391;DHT22;22957;50.824;4.360;2022-10-17T05:35:20;19.00;99.90
2391;DHT22;22957;50.824;4.360;2022-10-17T05:37:54;19.10;99.90
2391;DHT22;22957;50.824;4.360;2022-10-17T05:40:41;19.00;99.90
2391;DHT22;22957;50.824;4.360;2022-10-17T05:43:49;19.00;99.90
2391;DHT22;22957;50.824;4.360;2022-10-17T05:46:22;19.00;99.90
2391;DHT22;22957;50.824;4.360;2022-10-17T05:49:09;18.80;99.90
2391;DHT22;22957;50.824;4.360;2022-10-17T05:51:39;18.90;99.90
2391;DHT22;22957;50.824;4.360;2022-10-17T05:54:27;19.10;99.90
2391;DHT22;22957;50.824;4.360;2022-10-17T05:56:55;19.00;99.90
2391;DHT22;22957;50.824;4.360;2022-10-17T05:59:25;19.10;99.90
2391;DHT22;22957;50.824;4.360;2022-10-17T06:07:04;19.20;99.90
2391;DHT22;22957;50.824;4.360;2022-10-17T06:09:30;19.10;99.90
2391;DHT22;22957;50.824;4.360;2022-10-17T06:11:55;19.00;99.90
2391;DHT22;22957;50.824;4.360;2022-10-17T06:14:21;18.90;99.90
2391;DHT22;22957;50.824;4.360;2022-10-17T06:16:47;19.00;99.90
2391;DHT22;22957;50.824;4.360;2022-10-17T06:19:13;18.90;99.90
2391;DHT22;22957;50.824;4.360;2022-10-17T06:21:39;18.90;99.90
2391;DHT22;22957;50.824;4.360;2022-10-17T06:24:06;19.10;99.90
2391;DHT22;22957;50.824;4.360;2022-10-17T06:26:32;19.10;99.90
2391;DHT22;22957;50.824;4.360;2022-10-17T06:28:58;19.10;99.90
2391;DHT22;22957;50.824;4.360;2022-10-17T06:31:23;19.30;99.90
2391;DHT22;22957;50.824;4.360;2022-10-17T06:33:49;19.40;99.90
2391;DHT22;22957;50.824;4.360;2022-10-17T06:36:23;19.50;99.90
2391;DHT22;22957;50.824;4.360;2022-10-17T06:39:00;19.50;99.90
2391;DHT22;22957;50.824;4.360;2022-10-17T06:42:09;19.40;99.90
2391;DHT22;22957;50.824;4.360;2022-10-17T06:45:16;19.40;99.90
2391;DHT22;22957;50.824;4.360;2022-10-17T06:48:04;19.40;99.90
2391;DHT22;22957;50.824;4.360;2022-10-17T06:50:33;19.40;99.90
2391;DHT22;22957;50.824;4.360;2022-10-17T06:53:07;19.30;99.90
2391;DHT22;22957;50.824;4.360;2022-10-17T06:55:33;19.40;99.90
2391;DHT22;22957;50.824;4.360;2022-10-17T06:58:22;19.60;99.90
2391;DHT22;22957;50.824;4.360;2022-10-17T07:00:48;19.70;99.90
2391;DHT22;22957;50.824;4.360;2022-10-17T07:03:33;20.00;99.90
2391;DHT22;22957;50.824;4.360;2022-10-17T07:18:11;19.60;99.90
2391;DHT22;22957;50.824;4.360;2022-10-17T07:20:41;19.50;99.90
2391;DHT22;22957;50.824;4.360;2022-10-17T07:23:29;19.50;99.90
2391;DHT22;22957;50.824;4.360;2022-10-17T07:26:04;19.70;99.90
2391;DHT22;22957;50.824;4.360;2022-10-17T07:28:42;19.40;99.90
2391;DHT22;22957;50.824;4.360;2022-10-17T07:37:03;18.80;99.90
2391;DHT22;22957;50.824;4.360;2022-10-17T07:40:13;18.60;99.90
2391;DHT22;22957;50.824;4.360;2022-10-17T07:42:43;19.00;99.90
2391;DHT22;22957;50.824;4.360;2022-10-17T07:45:28;18.80;99.90
2391;DHT22;22957;50.824;4.360;2022-10-17T07:48:16;18.80;99.90
2391;DHT22;22957;50.824;4.360;2022-10-17T07:53:41;18.70;99.90
2391;DHT22;22957;50.824;4.360;2022-10-17T07:56:35;18.40;99.90
2391;DHT22;22957;50.824;4.360;2022-10-17T07:59:04;18.50;99.90
2391;DHT22;22957;50.824;4.360;2022-10-17T08:01:30;18.50;99.90
2391;DHT22;22957;50.824;4.360;2022-10-17T08:03:57;18.60;99.90
2391;DHT22;22957;50.824;4.360;2022-10-17T08:06:23;18.70;99.90
2391;DHT22;22957;50.824;4.360;2022-10-17T08:08:50;18.70;99.90
2391;DHT22;22957;50.824;4.360;2022-10-17T08:11:15;18.80;99.90
2391;DHT22;22957;50.824;4.360;2022-10-17T08:13:42;18.70;99.90
2391;DHT22;22957;50.824;4.360;2022-10-17T08:16:11;19.00;99.90
2391;DHT22;22957;50.824;4.360;2022-10-17T08:42:04;18.90;99.90
2391;DHT22;22957;50.824;4.360;2022-10-17T08:48:03;18.90;99.90
2391;DHT22;22957;50.824;4.360;2022-10-17T08:50:45;18.70;99.90
2391;DHT22;22957;50.824;4.360;2022-10-17T09:18:38;18.90;99.90
2391;DHT22;22957;50.824;4.360;2022-10-17T09:24:17;19.20;99.90
2391;DHT22;22957;50.824;4.360;2022-10-17T09:30:34;19.30;99.90
2391;DHT22;22957;50.824;4.360;2022-10-17T09:33:43;19.30;99.90
2391;DHT22;22957;50.824;4.360;2022-10-17T09:37:04;19.20;99.90
2391;DHT22;22957;50.824;4.360;2022-10-17T09:40:29;19.30;99.90
2391;DHT22;22957;50.824;4.360;2022-10-17T09:43:54;19.30;99.90
2391;DHT22;22957;50.824;4.360;2022-10-17T09:50:02;19.50;99.90
2391;DHT22;22957;50.824;4.360;2022-10-17T09:53:12;19.40;99.90
2391;DHT22;22957;50.824;4.360;2022-10-17T09:58:58;19.30;99.90
2391;DHT22;22957;50.824;4.360;2022-10-17T10:02:34;19.40;99.90
2391;DHT22;22957;50.824;4.360;2022-10-17T10:05:26;19.80;99.90
2391;DHT22;22957;50.824;4.360;2022-10-17T10:08:26;19.60;99.90
2391;DHT22;22957;50.824;4.360;2022-10-17T10:11:23;19.80;99.90
2391;DHT22;22957;50.824;4.360;2022-10-17T10:14:22;19.60;99.90
2391;DHT22;22957;50.824;4.360;2022-10-17T10:20:31;19.40;99.90
2391;DHT22;22957;50.824;4.360;2022-10-17T10:23:35;19.30;99.90
2391;DHT22;22957;50.824;4.360;2022-10-17T10:26:45;19.40;99.90
2391;DHT22;22957;50.824;4.360;2022-10-17T10:32:28;19.60;99.90
2391;DHT22;22957;50.824;4.360;2022-10-17T10:35:56;19.80;99.90
2391;DHT22;22957;50.824;4.360;2022-10-17T10:38:32;19.80;99.90
2391;DHT22;22957;50.824;4.360;2022-10-17T10:41:48;20.10;99.90
2391;DHT22;22957;50.824;4.360;2022-10-17T10:47:24;20.00;99.90
2391;DHT22;22957;50.824;4.360;2022-10-17T10:59:01;19.80;99.90
2391;DHT22;22957;50.824;4.360;2022-10-17T11:13:40;19.60;99.90
2391;DHT22;22957;50.824;4.360;2022-10-17T11:19:24;19.50;99.90
2391;DHT22;22957;50.824;4.360;2022-10-17T11:27:29;19.50;99.90
2391;DHT22;22957;50.824;4.360;2022-10-17T11:29:58;19.60;99.90
2391;DHT22;22957;50.824;4.360;2022-10-17T11:38:35;19.50;99.90
2391;DHT22;22957;50.824;4.360;2022-10-17T11:40:41;19.40;99.90
2391;DHT22;22957;50.824;4.360;2022-10-17T11:45:43;19.70;99.90
2391;DHT22;22957;50.824;4.360;2022-10-17T11:48:17;19.80;99.90
2391;DHT22;22957;50.824;4.360;2022-10-17T11:50:48;19.80;99.90
2391;DHT22;22957;50.824;4.360;2022-10-17T11:53:19;20.00;99.90
2391;DHT22;22957;50.824;4.360;2022-10-17T11:55:50;20.20;99.90
2391;DHT22;22957;50.824;4.360;2022-10-17T11:58:35;20.30;99.90
2391;DHT22;22957;50.824;4.360;2022-10-17T12:03:53;20.00;99.90
2391;DHT22;22957;50.824;4.360;2022-10-17T12:12:32;20.00;99.90
2391;DHT22;22957;50.824;4.360;2022-10-17T12:15:27;20.30;99.90
2391;DHT22;22957;50.824;4.360;2022-10-17T12:18:02;20.20;99.90
2391;DHT22;22957;50.824;4.360;2022-10-17T12:20:54;20.50;99.90
2391;DHT22;22957;50.824;4.360;2022-10-17T12:23:32;20.60;99.90
2391;DHT22;22957;50.824;4.360;2022-10-17T12:26:11;20.80;99.90
2391;DHT22;22957;50.824;4.360;2022-10-17T12:28:51;20.50;99.90
2391;DHT22;22957;50.824;4.360;2022-10-17T12:34:03;20.10;99.90
2391;DHT22;22957;50.824;4.360;2022-10-17T12:59:11;20.00;99.90
2391;DHT22;22957;50.824;4.360;2022-10-17T13:01:38;20.10;99.90
2391;DHT22;22957;50.824;4.360;2022-10-17T13:07:04;20.20;99.90
2391;DHT22;22957;50.824;4.360;2022-10-17T13:09:43;20.20;99.90
2391;DHT22;22957;50.824;4.360;2022-10-17T13:12:17;20.30;99.90
2391;DHT22;22957;50.824;4.360;2022-10-17T13:15:06;20.30;99.90
2391;DHT22;22957;50.824;4.360;2022-10-17T13:17:35;20.40;99.90
2391;DHT22;22957;50.824;4.360;2022-10-17T13:22:53;20.70;99.90
2391;DHT22;22957;50.824;4.360;2022-10-17T13:25:34;20.80;99.90
2391;DHT22;22957;50.824;4.360;2022-10-17T13:28:10;20.80;99.90
2391;DHT22;22957;50.824;4.360;2022-10-17T13:30:45;20.90;99.90
2391;DHT22;22957;50.824;4.360;2022-10-17T13:33:41;20.70;99.90
2391;DHT22;22957;50.824;4.360;2022-10-17T13:39:07;20.50;99.90
2391;DHT22;22957;50.824;4.360;2022-10-17T13:41:35;20.70;99.90
2391;DHT22;22957;50.824;4.360;2022-10-17T13:44:22;20.60;99.90
2391;DHT22;22957;50.824;4.360;2022-10-17T13:47:19;20.60;99.90
2391;DHT22;22957;50.824;4.360;2022-10-17T13:49:49;20.50;99.90
2391;DHT22;22957;50.824;4.360;2022-10-17T13:52:18;20.30;99.90
2391;DHT22;22957;50.824;4.360;2022-10-17T13:54:47;20.20;99.90
2391;DHT22;22957;50.824;4.360;2022-10-17T13:57:22;20.20;99.90
2391;DHT22;22957;50.824;4.360;2022-10-17T13:59:55;20.40;99.90
2391;DHT22;22957;50.824;4.360;2022-10-17T14:02:26;20.60;99.90
2391;DHT22;22957;50.824;4.360;2022-10-17T14:05:12;20.40;99.90
2391;DHT22;22957;50.824;4.360;2022-10-17T14:07:44;20.50;99.90
2391;DHT22;22957;50.824;4.360;2022-10-17T14:10:31;20.60;99.90
2391;DHT22;22957;50.824;4.360;2022-10-17T14:13:20;20.50;99.90
2391;DHT22;22957;50.824;4.360;2022-10-17T14:15:47;20.40;99.90
2391;DHT22;22957;50.824;4.360;2022-10-17T14:18:19;20.70;99.90
2391;DHT22;22957;50.824;4.360;2022-10-17T14:20:48;20.60;99.90
2391;DHT22;22957;50.824;4.360;2022-10-17T14:23:37;20.40;99.90
2391;DHT22;22957;50.824;4.360;2022-10-17T14:28:40;20.70;99.90
2391;DHT22;22957;50.824;4.360;2022-10-17T14:31:33;20.80;99.90
2391;DHT22;22957;50.824;4.360;2022-10-17T14:34:01;20.90;99.90
2391;DHT22;22957;50.824;4.360;2022-10-17T14:36:41;20.80;99.90
2391;DHT22;22957;50.824;4.360;2022-10-17T14:39:19;20.70;99.90
2391;DHT22;22957;50.824;4.360;2022-10-17T14:41:49;20.50;99.90
2391;DHT22;22957;50.824;4.360;2022-10-17T14:44:30;20.70;99.90
2391;DHT22;22957;50.824;4.360;2022-10-17T14:46:59;20.80;99.90
2391;DHT22;22957;50.824;4.360;2022-10-17T14:49:32;20.60;99.90
2391;DHT22;22957;50.824;4.360;2022-10-17T14:52:22;20.60;99.90
2391;DHT22;22957;50.824;4.360;2022-10-17T14:54:49;20.60;99.90
2391;DHT22;22957;50.824;4.360;2022-10-17T14:57:26;20.60;99.90
2391;DHT22;22957;50.824;4.360;2022-10-17T15:00:03;20.70;99.90
2391;DHT22;22957;50.824;4.360;2022-10-17T15:02:31;20.60;99.90
2391;DHT22;22957;50.824;4.360;2022-10-17T15:05:01;20.60;99.90
2391;DHT22;22957;50.824;4.360;2022-10-17T15:07:33;20.80;99.90
2391;DHT22;22957;50.824;4.360;2022-10-17T15:10:20;20.70;99.90
2391;DHT22;22957;50.824;4.360;2022-10-17T15:12:59;20.70;99.90
2391;DHT22;22957;50.824;4.360;2022-10-17T15:15:30;20.40;99.90
2391;DHT22;22957;50.824;4.360;2022-10-17T15:18:00;20.60;99.90
2391;DHT22;22957;50.824;4.360;2022-10-17T15:20:28;20.70;99.90
2391;DHT22;22957;50.824;4.360;2022-10-17T15:22:58;20.90;99.90
2391;DHT22;22957;50.824;4.360;2022-10-17T15:25:25;20.70;99.90
2391;DHT22;22957;50.824;4.360;2022-10-17T15:27:51;20.70;99.90
2391;DHT22;22957;50.824;4.360;2022-10-17T15:30:29;20.60;99.90
2391;DHT22;22957;50.824;4.360;2022-10-17T15:32:57;20.70;99.90
2391;DHT22;22957;50.824;4.360;2022-10-17T15:35:24;20.40;99.90
2391;DHT22;22957;50.824;4.360;2022-10-17T15:37:50;20.50;99.90
2391;DHT22;22957;50.824;4.360;2022-10-17T15:48:17;20.40;99.90
2391;DHT22;22957;50.824;4.360;2022-10-17T15:50:45;20.40;99.90
2391;DHT22;22957;50.824;4.360;2022-10-17T15:53:32;20.50;99.90
2391;DHT22;22957;50.824;4.360;2022-10-17T15:56:06;20.40;99.90
2391;DHT22;22957;50.824;4.360;2022-10-17T15:59:10;20.40;99.90
2391;DHT22;22957;50.824;4.360;2022-10-17T16:01:42;20.20;99.90
2391;DHT22;22957;50.824;4.360;2022-10-17T16:04:35;20.30;99.90
2391;DHT22;22957;50.824;4.360;2022-10-17T16:07:03;20.20;99.90
2391;DHT22;22957;50.824;4.360;2022-10-17T16:09:31;20.20;99.90
2391;DHT22;22957;50.824;4.360;2022-10-17T16:11:59;20.30;99.90
2391;DHT22;22957;50.824;4.360;2022-10-17T16:14:27;20.30;99.90
2391;DHT22;22957;50.824;4.360;2022-10-17T16:16:54;20.30;99.90
2391;DHT22;22957;50.824;4.360;2022-10-17T16:19:29;20.10;99.90
2391;DHT22;22957;50.824;4.360;2022-10-17T16:21:57;20.20;99.90
2391;DHT22;22957;50.824;4.360;2022-10-17T16:24:29;20.20;99.90
2391;DHT22;22957;50.824;4.360;2022-10-17T16:26:57;20.20;99.90
2391;DHT22;22957;50.824;4.360;2022-10-17T16:29:23;20.20;99.90
2391;DHT22;22957;50.824;4.360;2022-10-17T16:31:48;20.00;99.90
2391;DHT22;22957;50.824;4.360;2022-10-17T16:34:15;20.10;99.90
2391;DHT22;22957;50.824;4.360;2022-10-17T16:36:41;20.00;99.90
2391;DHT22;22957;50.824;4.360;2022-10-17T16:39:07;19.90;99.90
2391;DHT22;22957;50.824;4.360;2022-10-17T16:41:35;19.80;99.90
2391;DHT22;22957;50.824;4.360;2022-10-17T16:44:05;19.90;99.90
2391;DHT22;22957;50.824;4.360;2022-10-17T16:46:31;19.80;99.90
2391;DHT22;22957;50.824;4.360;2022-10-17T16:48:58;19.70;99.90
2391;DHT22;22957;50.824;4.360;2022-10-17T16:51:24;19.60;99.90
2391;DHT22;22957;50.824;4.360;2022-10-17T16:53:51;19.80;99.90
2391;DHT22;22957;50.824;4.360;2022-10-17T16:56:23;19.80;99.90
2391;DHT22;22957;50.824;4.360;2022-10-17T16:58:50;19.60;99.90
2391;DHT22;22957;50.824;4.360;2022-10-17T17:01:19;19.60;99.90
2391;DHT22;22957;50.824;4.360;2022-10-17T17:03:46;19.30;99.90
2391;DHT22;22957;50.824;4.360;2022-10-17T17:06:25;19.50;99.90
2391;DHT22;22957;50.824;4.360;2022-10-17T17:08:52;19.60;99.90
2391;DHT22;22957;50.824;4.360;2022-10-17T17:11:22;19.20;99.90
2391;DHT22;22957;50.824;4.360;2022-10-17T17:13:48;19.30;99.90
2391;DHT22;22957;50.824;4.360;2022-10-17T17:16:19;19.40;99.90
2391;DHT22;22957;50.824;4.360;2022-10-17T17:18:56;19.40;99.90
2391;DHT22;22957;50.824;4.360;2022-10-17T17:21:22;19.20;99.90
2391;DHT22;22957;50.824;4.360;2022-10-17T17:23:48;19.20;99.90
2391;DHT22;22957;50.824;4.360;2022-10-17T17:26:23;19.10;99.90
2391;DHT22;22957;50.824;4.360;2022-10-17T17:28:51;18.90;99.90
2391;DHT22;22957;50.824;4.360;2022-10-17T17:31:20;18.90;99.90
2391;DHT22;22957;50.824;4.360;2022-10-17T17:33:52;19.10;99.90
2391;DHT22;22957;50.824;4.360;2022-10-17T17:36:22;19.10;99.90
2391;DHT22;22957;50.824;4.360;2022-10-17T17:38:52;18.90;99.90
2391;DHT22;22957;50.824;4.360;2022-10-17T17:41:20;19.20;99.90
2391;DHT22;22957;50.824;4.360;2022-10-17T17:43:48;19.00;99.90
2391;DHT22;22957;50.824;4.360;2022-10-17T17:46:23;19.00;99.90
2391;DHT22;22957;50.824;4.360;2022-10-17T17:51:46;19.00;99.90
2391;DHT22;22957;50.824;4.360;2022-10-17T17:54:13;18.80;99.90
2391;DHT22;22957;50.824;4.360;2022-10-17T17:56:39;18.60;99.90
2391;DHT22;22957;50.824;4.360;2022-10-17T18:09:35;18.60;99.90
2391;DHT22;22957;50.824;4.360;2022-10-17T18:12:30;18.70;99.90
2391;DHT22;22957;50.824;4.360;2022-10-17T18:15:18;18.90;99.90
2391;DHT22;22957;50.824;4.360;2022-10-17T18:25:57;18.60;99.90
2391;DHT22;22957;50.824;4.360;2022-10-17T18:28:37;19.00;99.90
2391;DHT22;22957;50.824;4.360;2022-10-17T18:31:13;18.60;99.90
2391;DHT22;22957;50.824;4.360;2022-10-17T18:33:50;18.60;99.90
2391;DHT22;22957;50.824;4.360;2022-10-17T18:38:50;18.70;99.90
2391;DHT22;22957;50.824;4.360;2022-10-17T18:41:25;18.70;99.90
2391;DHT22;22957;50.824;4.360;2022-10-17T18:44:06;18.80;99.90
2391;DHT22;22957;50.824;4.360;2022-10-17T18:46:34;18.90;99.90
2391;DHT22;22957;50.824;4.360;2022-10-17T18:51:39;19.00;99.90
2391;DHT22;22957;50.824;4.360;2022-10-17T18:54:28;19.00;99.90
2391;DHT22;22957;50.824;4.360;2022-10-17T18:57:36;19.10;99.90
2391;DHT22;22957;50.824;4.360;2022-10-17T19:00:50;18.90;99.90
2391;DHT22;22957;50.824;4.360;2022-10-17T19:21:41;18.60;99.90
2391;DHT22;22957;50.824;4.360;2022-10-17T19:26:57;18.80;99.90
2391;DHT22;22957;50.824;4.360;2022-10-17T19:35:23;18.50;99.90
2391;DHT22;22957;50.824;4.360;2022-10-17T19:55:11;18.60;99.90
2391;DHT22;22957;50.824;4.360;2022-10-17T19:57:37;18.90;99.90
2391;DHT22;22957;50.824;4.360;2022-10-17T20:00:49;18.80;99.90
2391;DHT22;22957;50.824;4.360;2022-10-17T20:05:53;18.80;99.90
2391;DHT22;22957;50.824;4.360;2022-10-17T20:09:09;18.80;99.90
2391;DHT22;22957;50.824;4.360;2022-10-17T20:12:15;18.60;99.90
2391;DHT22;22957;50.824;4.360;2022-10-17T20:14:52;18.50;99.90
2391;DHT22;22957;50.824;4.360;2022-10-17T20:17:57;18.70;99.90
2391;DHT22;22957;50.824;4.360;2022-10-17T20:20:28;18.90;99.90
2391;DHT22;22957;50.824;4.360;2022-10-17T20:22:55;18.70;99.90
2391;DHT22;22957;50.824;4.360;2022-10-17T20:25:21;18.70;99.90
2391;DHT22;22957;50.824;4.360;2022-10-17T20:27:58;18.80;99.90
2391;DHT22;22957;50.824;4.360;2022-10-17T20:31:04;18.70;99.90
2391;DHT22;22957;50.824;4.360;2022-10-17T20:33:57;18.70;99.90
2391;DHT22;22957;50.824;4.360;2022-10-17T20:36:27;18.50;99.90
2391;DHT22;22957;50.824;4.360;2022-10-17T20:41:54;18.70;99.90
2391;DHT22;22957;50.824;4.360;2022-10-17T20:47:18;18.70;99.90
2391;DHT22;22957;50.824;4.360;2022-10-17T20:52:33;18.90;99.90
2391;DHT22;22957;50.824;4.360;2022-10-17T20:55:39;18.90;99.90
2391;DHT22;22957;50.824;4.360;2022-10-17T21:07:17;18.80;99.90
2391;DHT22;22957;50.824;4.360;2022-10-17T21:19:20;18.80;99.90
2391;DHT22;22957;50.824;4.360;2022-10-17T21:22:16;18.70;99.90
2391;DHT22;22957;50.824;4.360;2022-10-17T21:30:09;18.90;99.90
2391;DHT22;22957;50.824;4.360;2022-10-17T21:33:01;18.80;99.90
2391;DHT22;22957;50.824;4.360;2022-10-17T21:46:19;18.70;99.90
2391;DHT22;22957;50.824;4.360;2022-10-17T21:51:34;18.60;99.90
2391;DHT22;22957;50.824;4.360;2022-10-17T21:54:24;18.60;99.90
2391;DHT22;22957;50.824;4.360;2022-10-17T22:02:45;19.00;99.90
2391;DHT22;22957;50.824;4.360;2022-10-17T22:05:41;18.80;99.90
2391;DHT22;22957;50.824;4.360;2022-10-17T22:08:11;18.60;99.90
2391;DHT22;22957;50.824;4.360;2022-10-17T22:11:12;18.60;99.90
2391;DHT22;22957;50.824;4.360;2022-10-17T22:14:05;18.40;99.90
2391;DHT22;22957;50.824;4.360;2022-10-17T22:16:34;18.40;99.90
2391;DHT22;22957;50.824;4.360;2022-10-17T22:19:06;18.30;99.90
2391;DHT22;22957;50.824;4.360;2022-10-17T22:21:40;18.30;99.90
2391;DHT22;22957;50.824;4.360;2022-10-17T22:25:16;18.50;99.90
2391;DHT22;22957;50.824;4.360;2022-10-17T22:28:03;18.60;99.90